Time;durP1;ratioP1;P1;durP2;ratioP2;P2;SDS_P1;SDS_P2;PMS_P1;PMS_P2;Temp;Humidity;BMP_temperature;BMP_pressure;BME280_temperature;BME280_humidity;BME280_pressure;Samples;Min_cycle;Max_cycle;Signal;HPM_P1;HPM_P2
2024/01/26 00:01:08;;;;;;;24.20;5.93;;;4.70;99.90;;;;;;5107988;28;20107;-51
2024/01/26 00:03:33;;;;;;;22.38;4.75;;;4.60;99.90;;;;;;5106262;28;20114;-50
2024/01/26 00:06:00;;;;;;;23.95;5.07;;;4.60;99.90;;;;;;5108156;28;20136;-51
2024/01/26 00:08:26;;;;;;;28.10;5.75;;;4.60;99.90;;;;;;5107605;28;20031;-51
2024/01/26 00:10:51;;;;;;;20.83;5.32;;;4.60;99.90;;;;;;5108272;28;20032;-50
2024/01/26 00:13:17;;;;;;;23.25;4.88;;;4.60;99.90;;;;;;5108948;28;20505;-50
2024/01/26 00:15:46;;;;;;;22.48;5.85;;;4.50;99.90;;;;;;5108327;28;20471;-51
2024/01/26 00:18:11;;;;;;;24.90;4.90;;;4.50;99.90;;;;;;5109017;28;20458;-49
2024/01/26 00:20:37;;;;;;;16.05;4.60;;;4.50;99.90;;;;;;5090465;28;20050;-57
2024/01/26 00:23:03;;;;;;;20.35;6.13;;;4.50;99.90;;;;;;5108391;28;20043;-53
2024/01/26 19:18:38;;;;;;;31.42;14.93;;;4.50;99.90;;;;;;5104293;27;20843;-51
2024/01/26 19:21:05;;;;;;;44.05;18.40;;;4.50;99.90;;;;;;5091888;27;21042;-51
2024/01/26 19:23:31;;;;;;;39.20;18.08;;;4.40;99.90;;;;;;5099342;28;20034;-51
2024/01/26 19:25:56;;;;;;;41.65;18.20;;;4.40;99.90;;;;;;5100021;28;20769;-50
2024/01/26 19:28:22;;;;;;;45.35;17.60;;;4.40;99.90;;;;;;5081436;28;20150;-51
2024/01/26 19:30:48;;;;;;;40.60;16.15;;;4.40;99.90;;;;;;5096187;28;20127;-51
2024/01/26 19:33:13;;;;;;;36.78;18.38;;;4.40;99.90;;;;;;5077912;28;20375;-50
2024/01/26 19:35:39;;;;;;;34.38;16.00;;;4.40;99.90;;;;;;5100564;28;20027;-51
2024/01/26 19:38:05;;;;;;;41.08;18.10;;;4.40;99.90;;;;;;5099996;28;20479;-52
2024/01/26 19:40:30;;;;;;;35.33;16.42;;;4.40;99.90;;;;;;5098259;28;20094;-53
2024/01/26 19:42:56;;;;;;;32.20;16.77;;;4.40;99.90;;;;;;5091589;28;20035;-55
2024/01/26 19:45:22;;;;;;;36.65;19.00;;;4.40;99.90;;;;;;5100607;28;20150;-53
2024/01/26 19:47:48;;;;;;;40.08;19.00;;;4.40;99.90;;;;;;5100489;28;20031;-53
2024/01/26 19:50:14;;;;;;;37.55;19.23;;;4.40;99.90;;;;;;5100334;27;21073;-51
2024/01/26 19:52:43;;;;;;;40.72;19.67;;;4.40;99.90;;;;;;5089800;28;20045;-50
2024/01/26 19:55:13;;;;;;;45.50;21.05;;;4.40;99.90;;;;;;5081666;28;20031;-52
2024/01/26 19:57:40;;;;;;;46.72;21.88;;;4.40;99.90;;;;;;5099531;28;20024;-52
2024/01/26 20:00:08;;;;;;;46.22;21.60;;;4.40;99.90;;;;;;5100581;28;20091;-49
2024/01/26 20:02:35;;;;;;;42.38;20.30;;;4.40;99.90;;;;;;5089970;28;20450;-50
2024/01/26 20:05:02;;;;;;;41.70;18.98;;;4.40;99.90;;;;;;5098559;27;20042;-50
2024/01/26 20:07:27;;;;;;;43.15;21.73;;;4.40;99.90;;;;;;5099194;28;20126;-50
2024/01/26 20:09:53;;;;;;;41.00;18.55;;;4.40;99.90;;;;;;5099369;28;20342;-52
2024/01/26 20:12:19;;;;;;;40.63;19.30;;;4.50;99.90;;;;;;5089894;28;20028;-52
2024/01/26 20:14:45;;;;;;;44.17;20.00;;;4.50;99.90;;;;;;5099653;28;20027;-51
2024/01/26 20:17:14;;;;;;;53.97;22.63;;;4.50;99.90;;;;;;5099429;27;20309;-48
2024/01/26 20:19:40;;;;;;;38.35;18.00;;;4.50;99.90;;;;;;5098377;28;20092;-56
2024/01/26 20:22:06;;;;;;;33.40;14.97;;;4.60;99.90;;;;;;5088375;28;20023;-51
2024/01/26 20:24:32;;;;;;;35.35;15.02;;;4.70;99.90;;;;;;5097157;27;20265;-49
2024/01/26 20:26:57;;;;;;;39.58;15.48;;;4.70;99.90;;;;;;5097427;27;20462;-51
2024/01/26 20:29:23;;;;;;;35.05;14.50;;;4.70;99.90;;;;;;5091965;28;20113;-57
2024/01/26 20:31:49;;;;;;;32.50;12.95;;;4.80;99.90;;;;;;5085323;28;20035;-51
2024/01/26 20:34:15;;;;;;;30.67;13.68;;;4.80;99.90;;;;;;5098555;28;20135;-50
2024/01/26 20:36:41;;;;;;;30.40;13.05;;;4.90;99.90;;;;;;5093084;28;20042;-49
2024/01/26 20:39:06;;;;;;;28.70;12.85;;;5.00;99.90;;;;;;5085985;28;20024;-53
2024/01/26 20:41:34;;;;;;;27.98;11.98;;;5.00;99.90;;;;;;5075343;28;20338;-58
2024/01/26 20:44:01;;;;;;;29.60;12.18;;;5.10;99.90;;;;;;5085219;28;21339;-52
2024/01/26 20:46:27;;;;;;;25.10;10.38;;;5.20;99.90;;;;;;5085916;28;20076;-51
2024/01/26 20:48:53;;;;;;;25.88;10.95;;;5.20;99.90;;;;;;5085473;28;20043;-51
2024/01/26 20:51:19;;;;;;;22.05;10.45;;;5.30;99.90;;;;;;5079269;28;20027;-54
2024/01/26 20:53:45;;;;;;;29.77;11.85;;;5.40;99.90;;;;;;5085991;28;20535;-51
2024/01/26 20:56:10;;;;;;;30.40;13.30;;;5.50;99.90;;;;;;5083882;28;20073;-51
2024/01/26 20:58:36;;;;;;;20.65;11.10;;;5.50;99.90;;;;;;5085374;28;20124;-50
2024/01/26 21:01:02;;;;;;;24.77;10.43;;;5.50;99.90;;;;;;5079359;28;20514;-51
2024/01/26 21:03:28;;;;;;;23.52;10.95;;;5.50;99.90;;;;;;5066193;28;20024;-48
2024/01/26 21:05:54;;;;;;;21.58;8.65;;;5.50;99.90;;;;;;5084314;28;20482;-51
2024/01/26 21:08:20;;;;;;;19.33;9.30;;;5.60;99.90;;;;;;5084840;28;20045;-49
2024/01/26 21:10:48;;;;;;;17.95;9.02;;;5.60;99.90;;;;;;5081302;27;20035;-50
2024/01/26 21:13:17;;;;;;;20.92;8.63;;;5.60;99.90;;;;;;5047930;28;20044;-53
2024/01/26 21:15:44;;;;;;;18.58;8.25;;;5.70;99.90;;;;;;5084424;28;20103;-55
2024/01/26 21:18:10;;;;;;;21.35;8.70;;;5.70;99.90;;;;;;5086787;28;20071;-53
2024/01/26 21:20:37;;;;;;;21.88;9.98;;;5.70;99.90;;;;;;5081888;28;20089;-52
2024/01/26 21:23:03;;;;;;;26.95;11.90;;;5.70;99.90;;;;;;5076188;28;20161;-52
2024/01/26 21:25:29;;;;;;;24.10;10.48;;;5.70;99.90;;;;;;5083097;28;20043;-55
2024/01/26 21:27:55;;;;;;;22.45;10.32;;;5.70;99.90;;;;;;5084165;28;20019;-50
2024/01/26 21:30:20;;;;;;;18.85;9.32;;;5.70;99.90;;;;;;5083673;28;20208;-52
2024/01/26 21:32:46;;;;;;;16.67;8.00;;;5.80;99.90;;;;;;5071967;28;20553;-50
2024/01/26 21:35:12;;;;;;;17.27;7.95;;;5.80;99.90;;;;;;5083692;28;20031;-56
2024/01/26 21:37:41;;;;;;;14.57;7.32;;;5.90;99.90;;;;;;5083052;28;20027;-53
2024/01/26 21:40:07;;;;;;;16.60;7.35;;;5.90;99.90;;;;;;5082704;28;20066;-50
2024/01/26 21:42:33;;;;;;;18.10;7.95;;;5.90;99.90;;;;;;5072441;28;20035;-50
2024/01/26 21:44:59;;;;;;;13.77;6.25;;;6.00;99.90;;;;;;5082804;28;20039;-51
2024/01/26 21:47:25;;;;;;;9.32;4.40;;;6.00;99.90;;;;;;5083124;28;20034;-50
2024/01/26 21:49:51;;;;;;;7.90;3.60;;;6.00;99.90;;;;;;5065232;28;20039;-51
2024/01/26 21:52:17;;;;;;;7.25;3.50;;;6.10;99.90;;;;;;5073752;27;20028;-51
2024/01/26 21:54:43;;;;;;;10.18;4.20;;;6.10;99.90;;;;;;5064593;28;20027;-53
2024/01/26 21:57:09;;;;;;;7.80;3.42;;;6.10;99.90;;;;;;5083028;28;20702;-55
2024/01/26 21:59:34;;;;;;;10.13;3.38;;;6.20;99.90;;;;;;5083854;28;20023;-53
2024/01/26 22:02:00;;;;;;;8.10;3.25;;;6.20;99.90;;;;;;5072802;28;20116;-52
2024/01/26 22:04:26;;;;;;;7.35;3.22;;;6.20;99.90;;;;;;5064660;28;20031;-53
2024/01/26 22:06:52;;;;;;;7.97;3.10;;;6.20;99.90;;;;;;5083440;28;20486;-49
2024/01/26 22:09:20;;;;;;;5.60;2.70;;;6.20;99.90;;;;;;5082919;28;20050;-54
2024/01/26 22:11:46;;;;;;;8.80;3.25;;;6.20;99.90;;;;;;5072593;28;20842;-51
2024/01/26 22:14:12;;;;;;;8.32;2.63;;;6.20;99.90;;;;;;5064558;28;20050;-53
2024/01/26 22:16:38;;;;;;;9.43;3.20;;;6.10;99.90;;;;;;5082751;28;20625;-54
2024/01/26 22:19:03;;;;;;;13.95;4.43;;;6.10;99.90;;;;;;5084374;28;20423;-52
2024/01/26 22:21:29;;;;;;;12.25;4.57;;;6.10;99.90;;;;;;5052996;28;20032;-52
2024/01/26 22:23:55;;;;;;;13.48;4.47;;;6.10;99.90;;;;;;5083368;28;20023;-51
2024/01/26 22:26:21;;;;;;;12.55;4.10;;;6.10;99.90;;;;;;5081405;28;20040;-53
2024/01/26 22:28:51;;;;;;;10.63;3.27;;;6.10;99.90;;;;;;5080489;28;20064;-52
2024/01/26 22:31:17;;;;;;;9.52;2.97;;;6.10;99.90;;;;;;5052607;28;20258;-53
2024/01/26 22:33:43;;;;;;;18.45;7.07;;;6.10;99.90;;;;;;5083202;28;20097;-52
2024/01/26 22:36:09;;;;;;;20.53;6.77;;;6.10;99.90;;;;;;5090312;28;20125;-51
2024/01/26 22:38:34;;;;;;;16.00;6.50;;;6.10;99.90;;;;;;5095998;28;21331;-53
2024/01/26 22:41:00;;;;;;;9.27;3.58;;;6.00;99.90;;;;;;5081217;28;20118;-53
2024/01/26 22:43:27;;;;;;;8.13;3.72;;;6.00;99.90;;;;;;5082223;28;20646;-51
2024/01/26 22:45:53;;;;;;;9.77;2.78;;;6.00;99.90;;;;;;5082063;28;21007;-50
2024/01/26 22:48:18;;;;;;;12.05;3.58;;;5.90;99.90;;;;;;5083363;28;20024;-53
2024/01/26 22:50:44;;;;;;;11.82;4.00;;;5.90;99.90;;;;;;5079366;28;20035;-51
2024/01/26 22:53:10;;;;;;;10.18;3.95;;;5.90;99.90;;;;;;5076354;28;20390;-52
2024/01/26 22:55:35;;;;;;;7.78;2.50;;;5.90;99.90;;;;;;5081811;28;20236;-54
2024/01/26 22:58:03;;;;;;;10.68;3.80;;;5.90;99.90;;;;;;5081910;28;20071;-50
2024/01/26 23:00:30;;;;;;;15.20;5.47;;;5.90;99.90;;;;;;5082187;28;20032;-53
2024/01/26 23:02:59;;;;;;;11.43;4.15;;;5.90;99.90;;;;;;5074678;28;20028;-52
2024/01/26 23:05:26;;;;;;;10.95;4.40;;;5.90;99.90;;;;;;5063621;28;20051;-52
2024/01/26 23:07:52;;;;;;;6.78;2.83;;;5.90;99.90;;;;;;5082317;28;20028;-55
2024/01/26 23:10:18;;;;;;;10.35;4.43;;;5.90;99.90;;;;;;5083006;28;20507;-51
2024/01/26 23:12:47;;;;;;;9.63;4.38;;;5.80;99.90;;;;;;5072050;28;20090;-53
2024/01/26 23:15:13;;;;;;;11.73;4.22;;;5.70;99.90;;;;;;5083339;28;20042;-49
2024/01/26 23:17:41;;;;;;;8.07;3.27;;;5.60;99.90;;;;;;5082553;28;20051;-57
2024/01/26 23:20:06;;;;;;;4.07;1.52;;;5.50;99.90;;;;;;5063862;28;20138;-52
2024/01/26 23:22:33;;;;;;;4.32;1.80;;;5.50;99.90;;;;;;5071963;28;20032;-52
2024/01/26 23:24:59;;;;;;;7.60;2.40;;;5.40;99.90;;;;;;5082637;28;20028;-52
2024/01/26 23:27:25;;;;;;;5.72;1.70;;;5.30;99.90;;;;;;5082110;28;20058;-53
2024/01/26 23:29:53;;;;;;;5.35;1.92;;;5.30;99.90;;;;;;5082676;28;20027;-53
2024/01/26 23:32:20;;;;;;;5.65;1.27;;;5.30;99.90;;;;;;5072271;28;20135;-53
2024/01/26 23:34:46;;;;;;;9.63;1.90;;;5.20;99.90;;;;;;5082123;28;20360;-50
2024/01/26 23:37:12;;;;;;;8.20;1.42;;;5.20;99.90;;;;;;5081885;28;20150;-53
2024/01/26 23:39:38;;;;;;;4.05;1.23;;;5.20;99.90;;;;;;5082373;28;20221;-53
2024/01/26 23:42:04;;;;;;;8.02;1.98;;;5.10;99.90;;;;;;5053100;28;20413;-52
2024/01/26 23:44:30;;;;;;;6.82;1.58;;;5.10;99.90;;;;;;5083283;28;20031;-53
